createdAt,value
2023-05-09T00:01:22.373Z,99933.31
2023-05-09T00:04:25.850Z,99935.81
2023-05-09T00:07:28.177Z,99918.94
2023-05-09T00:10:31.443Z,99924.06
2023-05-09T00:13:35.001Z,99917.97
2023-05-09T00:16:37.900Z,99916.81
2023-05-09T00:19:40.441Z,99925.63
2023-05-09T00:22:42.814Z,99930.28
2023-05-09T00:25:45.150Z,99924.63
2023-05-09T00:28:47.456Z,99918.69
2023-05-09T00:31:49.880Z,99926.91
2023-05-09T00:34:52.276Z,99916.56
2023-05-09T00:37:54.700Z,99915.25
2023-05-09T00:40:56.959Z,99914.78
2023-05-09T00:43:59.202Z,99916.63
2023-05-09T00:47:01.550Z,99917.81
2023-05-09T00:50:04.391Z,99914.81
2023-05-09T00:53:07.467Z,99915.13
2023-05-09T00:56:11.101Z,99912.31
2023-05-09T00:59:13.645Z,99912.91
2023-05-09T01:02:18.296Z,99913.81
2023-05-09T01:05:25.384Z,99908.22
2023-05-09T01:09:09.954Z,99900.13
2023-05-09T01:12:37.191Z,99917.19
2023-05-09T01:16:01.501Z,99923.22
2023-05-09T01:19:16.022Z,99921.00
2023-05-09T01:22:20.685Z,99915.50
2023-05-09T01:25:52.042Z,99917.41
2023-05-09T01:29:14.720Z,99914.59
2023-05-09T01:32:25.122Z,99901.28
2023-05-09T01:35:31.543Z,99904.44
2023-05-09T01:38:37.590Z,99905.19
2023-05-09T01:41:40.250Z,99903.69
2023-05-09T01:44:44.232Z,99906.19
2023-05-09T01:47:49.065Z,99906.03
2023-05-09T01:50:51.506Z,99906.19
2023-05-09T01:53:57.995Z,99902.50
2023-05-09T01:57:03.869Z,99896.78
2023-05-09T02:00:08.180Z,99904.16
2023-05-09T02:03:15.406Z,99894.53
2023-05-09T02:06:22.084Z,99885.78
2023-05-09T02:09:24.495Z,99901.00
2023-05-09T02:12:27.252Z,99892.34
2023-05-09T02:15:30.540Z,99893.66
2023-05-09T02:18:34.236Z,99885.00
2023-05-09T02:21:36.974Z,99885.91
2023-05-09T02:24:40.319Z,99879.94
2023-05-09T02:27:45.465Z,99878.59
2023-05-09T02:30:50.711Z,99880.13
2023-05-09T02:33:55.151Z,99878.00
2023-05-09T02:36:57.638Z,99881.03
2023-05-09T02:40:00.655Z,99877.41
2023-05-09T02:43:04.165Z,99877.41
2023-05-09T02:46:06.738Z,99876.22
2023-05-09T02:49:10.130Z,99882.34
2023-05-09T02:52:12.807Z,99886.81
2023-05-09T02:55:15.603Z,99883.13
2023-05-09T02:58:19.013Z,99883.53
2023-05-09T03:01:21.831Z,99880.06
2023-05-09T03:04:25.762Z,99884.28
2023-05-09T03:07:28.218Z,99882.63
2023-05-09T03:10:30.608Z,99872.31
2023-05-09T03:13:33.095Z,99883.25
2023-05-09T03:16:35.824Z,99883.06
2023-05-09T03:19:39.327Z,99882.06
2023-05-09T03:22:41.763Z,99887.00
2023-05-09T03:25:46.517Z,99878.94
2023-05-09T03:28:49.063Z,99883.38
2023-05-09T03:31:52.482Z,99883.69
2023-05-09T03:34:55.282Z,99885.22
2023-05-09T03:37:57.900Z,99884.31
2023-05-09T03:41:00.901Z,99885.63
2023-05-09T03:44:06.177Z,99887.72
2023-05-09T03:47:08.556Z,99892.19
2023-05-09T03:50:14.137Z,99883.50
2023-05-09T03:53:17.216Z,99882.75
2023-05-09T03:56:22.564Z,99889.75
2023-05-09T03:59:27.510Z,99890.25
2023-05-09T04:02:30.470Z,99894.38
2023-05-09T04:05:36.662Z,99896.88
2023-05-09T04:08:40.957Z,99897.13
2023-05-09T04:11:43.467Z,99883.50
2023-05-09T04:14:49.029Z,99881.88
2023-05-09T04:17:52.994Z,99883.28
2023-05-09T04:20:56.238Z,99892.63
2023-05-09T04:23:58.688Z,99897.50
2023-05-09T04:27:08.752Z,99892.94
2023-05-09T04:30:12.386Z,99895.19
2023-05-09T04:33:15.204Z,99895.72
2023-05-09T04:36:18.415Z,99891.66
2023-05-09T04:39:21.764Z,99901.00
2023-05-09T04:42:39.002Z,99893.06
2023-05-09T04:45:41.872Z,99894.78
2023-05-09T04:48:44.389Z,99896.38
2023-05-09T04:51:46.857Z,99887.97
2023-05-09T04:54:49.256Z,99888.44
2023-05-09T04:57:54.645Z,99885.06
2023-05-09T05:00:57.079Z,99885.22
2023-05-09T05:03:59.460Z,99890.75
2023-05-09T05:07:01.944Z,99892.16
2023-05-09T05:10:06.593Z,99890.75
2023-05-09T05:13:10.652Z,99895.72
2023-05-09T05:16:17.268Z,99884.84
2023-05-09T05:19:20.532Z,99890.16
2023-05-09T05:22:23.550Z,99892.84
2023-05-09T05:25:26.530Z,99890.13
2023-05-09T05:28:30.336Z,99887.63
2023-05-09T05:31:33.079Z,99887.75
2023-05-09T05:34:35.514Z,99884.84
2023-05-09T05:37:38.995Z,99881.41
2023-05-09T05:40:41.687Z,99876.53
2023-05-09T05:43:44.436Z,99874.97
2023-05-09T05:46:47.591Z,99873.69
2023-05-09T05:49:50.396Z,99869.78
2023-05-09T05:52:52.997Z,99861.00
2023-05-09T05:55:55.616Z,99872.34
2023-05-09T05:58:57.965Z,99859.63
2023-05-09T06:02:00.570Z,99859.63
2023-05-09T06:05:08.685Z,99866.56
2023-05-09T06:08:11.198Z,99864.75
2023-05-09T06:11:13.941Z,99861.59
2023-05-09T06:14:16.228Z,99862.78
2023-05-09T06:17:18.800Z,99865.34
2023-05-09T06:20:21.111Z,99865.88
2023-05-09T06:23:23.565Z,99864.81
2023-05-09T06:26:26.381Z,99866.84
2023-05-09T06:29:28.864Z,99867.94
2023-05-09T06:32:31.488Z,99859.63
2023-05-09T06:35:34.527Z,99863.59
2023-05-09T06:38:40.124Z,99865.94
2023-05-09T06:41:42.390Z,99869.03
2023-05-09T06:44:44.713Z,99869.63
2023-05-09T06:47:47.033Z,99869.25
2023-05-09T06:50:49.558Z,99860.59
2023-05-09T06:53:51.894Z,99861.00
2023-05-09T06:56:54.353Z,99858.78
2023-05-09T06:59:57.689Z,99857.03
2023-05-09T07:03:00.237Z,99860.97
2023-05-09T07:06:02.565Z,99848.22
2023-05-09T07:09:05.052Z,99843.25
2023-05-09T07:12:07.452Z,99837.91
2023-05-09T07:15:10.478Z,99843.38
2023-05-09T07:18:12.746Z,99832.53
2023-05-09T07:21:15.052Z,99834.72
2023-05-09T07:24:17.709Z,99835.22
2023-05-09T07:27:20.192Z,99831.31
2023-05-09T07:30:22.612Z,99836.13
2023-05-09T07:33:26.016Z,99831.38
2023-05-09T07:36:28.469Z,99816.94
2023-05-09T07:39:30.899Z,99808.84
2023-05-09T07:42:33.672Z,99813.72
2023-05-09T07:45:36.528Z,99815.44
2023-05-09T07:48:38.919Z,99809.28
2023-05-09T07:51:41.949Z,99813.28
2023-05-09T07:54:44.945Z,99814.34
2023-05-09T07:57:48.140Z,99810.13
2023-05-09T08:00:50.610Z,99806.28
2023-05-09T08:03:53.402Z,99800.13
2023-05-09T08:06:55.757Z,99802.25
2023-05-09T08:09:58.472Z,99799.03
2023-05-09T08:13:00.882Z,99796.03
2023-05-09T08:16:03.597Z,99795.25
2023-05-09T08:19:05.950Z,99790.59
2023-05-09T08:22:08.468Z,99787.81
2023-05-09T08:25:11.244Z,99792.25
2023-05-09T08:28:13.771Z,99788.84
2023-05-09T08:31:16.046Z,99782.28
2023-05-09T08:34:18.427Z,99775.75
2023-05-09T08:37:20.712Z,99793.88
2023-05-09T08:40:23.003Z,99785.50
2023-05-09T08:43:27.704Z,99790.06
2023-05-09T08:46:34.162Z,99783.22
2023-05-09T08:49:36.725Z,99784.44
2023-05-09T08:52:39.177Z,99787.66
2023-05-09T08:55:41.749Z,99781.31
2023-05-09T08:58:44.232Z,99776.38
2023-05-09T09:01:47.608Z,99764.28
2023-05-09T09:04:50.080Z,99776.00
2023-05-09T09:07:52.999Z,99766.09
2023-05-09T09:10:56.661Z,99768.72
2023-05-09T09:14:02.571Z,99768.69
2023-05-09T09:17:06.343Z,99754.56
2023-05-09T09:20:11.997Z,99756.97
2023-05-09T09:23:18.908Z,99761.53
2023-05-09T09:26:21.656Z,99750.03
2023-05-09T09:29:24.654Z,99760.28
2023-05-09T09:32:34.510Z,99753.81
2023-05-09T09:35:41.157Z,99745.56
2023-05-09T09:38:43.961Z,99752.06
2023-05-09T09:41:46.788Z,99754.91
2023-05-09T09:44:56.251Z,99748.31
2023-05-09T09:47:58.710Z,99746.41
2023-05-09T09:51:10.361Z,99747.13
2023-05-09T09:54:13.463Z,99753.38
2023-05-09T09:57:35.196Z,99752.63
2023-05-09T10:00:37.513Z,99745.16
2023-05-09T10:03:41.877Z,99739.31
2023-05-09T10:06:54.409Z,99746.19
2023-05-09T10:09:56.658Z,99725.44
2023-05-09T10:13:00.687Z,99731.50
2023-05-09T10:16:04.336Z,99728.41
2023-05-09T10:19:06.986Z,99732.47
2023-05-09T10:22:11.951Z,99703.22
2023-05-09T10:25:19.509Z,99725.66
2023-05-09T10:28:28.299Z,99725.56
2023-05-09T10:31:32.637Z,99727.59
2023-05-09T10:34:41.718Z,99710.34
2023-05-09T10:37:45.761Z,99712.31
2023-05-09T10:40:50.972Z,99713.78
2023-05-09T10:43:56.932Z,99723.09
2023-05-09T10:47:00.270Z,99717.78
2023-05-09T10:50:03.688Z,99715.00
2023-05-09T10:53:08.950Z,99715.78
2023-05-09T10:56:24.569Z,99730.56
2023-05-09T10:59:33.207Z,99711.38
2023-05-09T11:02:35.784Z,99696.88
2023-05-09T11:05:41.995Z,99706.78
2023-05-09T11:08:44.356Z,99700.88
2023-05-09T11:11:54.247Z,99695.91
2023-05-09T11:15:08.058Z,99698.38
2023-05-09T11:18:11.001Z,99705.13
2023-05-09T11:21:13.382Z,99687.31
2023-05-09T11:24:19.014Z,99695.09
2023-05-09T11:27:23.571Z,99698.16
2023-05-09T11:30:38.520Z,99684.13
2023-05-09T11:33:42.495Z,99675.81
2023-05-09T11:36:48.161Z,99684.94
2023-05-09T11:40:03.206Z,99688.53
2023-05-09T11:43:09.529Z,99677.06
2023-05-09T11:46:12.906Z,99678.69
2023-05-09T11:49:17.040Z,99675.75
2023-05-09T11:52:20.147Z,99678.69
2023-05-09T11:55:29.155Z,99670.63
2023-05-09T11:58:38.700Z,99673.13
2023-05-09T12:01:41.108Z,99670.72
2023-05-09T12:04:44.492Z,99671.66
2023-05-09T12:07:47.825Z,99670.25
2023-05-09T12:10:51.487Z,99668.09
2023-05-09T12:13:53.913Z,99656.25
2023-05-09T12:16:56.211Z,99660.53
2023-05-09T12:20:00.416Z,99652.38
2023-05-09T12:23:03.366Z,99653.91
2023-05-09T12:26:06.156Z,99650.75
2023-05-09T12:29:08.473Z,99643.94
2023-05-09T12:32:10.866Z,99643.41
2023-05-09T12:35:13.405Z,99639.06
2023-05-09T12:38:22.728Z,99638.38
2023-05-09T12:44:30.579Z,99634.59
2023-05-09T12:47:33.047Z,99636.88
2023-05-09T12:50:36.581Z,99631.97
2023-05-09T12:53:40.847Z,99626.16
2023-05-09T12:56:43.610Z,99613.47
2023-05-09T12:59:45.984Z,99612.75
2023-05-09T13:02:51.064Z,99620.69
2023-05-09T13:06:00.964Z,99611.03
2023-05-09T13:09:06.228Z,99608.38
2023-05-09T13:12:10.068Z,99618.16
2023-05-09T13:15:13.070Z,99608.00
2023-05-09T13:18:16.823Z,99601.59
2023-05-09T13:21:19.404Z,99599.28
2023-05-09T13:24:21.762Z,99596.09
2023-05-09T13:27:24.073Z,99598.25
2023-05-09T13:30:26.354Z,99585.41
2023-05-09T13:33:28.898Z,99585.69
2023-05-09T13:36:32.615Z,99580.28
2023-05-09T13:39:35.037Z,99578.84
2023-05-09T13:42:37.362Z,99582.66
2023-05-09T13:45:39.742Z,99582.78
2023-05-09T13:48:42.142Z,99585.25
2023-05-09T13:51:44.458Z,99581.97
2023-05-09T13:54:47.341Z,99584.06
2023-05-09T13:57:49.624Z,99588.16
2023-05-09T14:00:51.950Z,99568.25
2023-05-09T14:03:54.380Z,99560.09
2023-05-09T14:06:56.783Z,99559.41
2023-05-09T14:10:11.513Z,99562.00
2023-05-09T14:13:15.696Z,99562.81
2023-05-09T14:16:18.795Z,99546.94
2023-05-09T14:19:21.542Z,99553.84
2023-05-09T14:22:23.864Z,99550.59
2023-05-09T14:25:26.708Z,99550.06
2023-05-09T14:28:28.993Z,99538.25
2023-05-09T14:31:32.367Z,99549.38
2023-05-09T14:34:34.643Z,99543.97
2023-05-09T14:37:37.470Z,99548.09
2023-05-09T14:40:39.823Z,99545.03
2023-05-09T14:43:42.110Z,99539.59
2023-05-09T14:46:44.755Z,99535.28
2023-05-09T14:49:47.394Z,99534.06
2023-05-09T14:52:52.989Z,99525.03
2023-05-09T14:55:55.934Z,99527.00
2023-05-09T14:58:58.670Z,99512.28
2023-05-09T15:02:01.032Z,99521.63
2023-05-09T15:05:03.794Z,99518.72
2023-05-09T15:08:07.303Z,99522.72
2023-05-09T15:11:09.710Z,99516.63
2023-05-09T15:14:12.400Z,99513.31
2023-05-09T15:17:15.107Z,99521.03
2023-05-09T15:20:19.329Z,99509.50
2023-05-09T15:23:21.779Z,99501.03
2023-05-09T15:26:24.295Z,99501.06
2023-05-09T15:29:27.054Z,99499.00
2023-05-09T15:32:29.755Z,99494.16
2023-05-09T15:35:32.120Z,99486.19
2023-05-09T15:38:34.680Z,99485.66
2023-05-09T15:41:37.272Z,99480.31
2023-05-09T15:44:40.819Z,99488.03
2023-05-09T15:47:43.098Z,99488.34
2023-05-09T15:50:45.527Z,99480.25
2023-05-09T15:53:48.002Z,99477.78
2023-05-09T15:56:50.444Z,99482.59
2023-05-09T15:59:55.264Z,99476.34
2023-05-09T16:02:58.859Z,99477.53
2023-05-09T16:06:01.496Z,99467.63
2023-05-09T16:09:04.803Z,99470.59
2023-05-09T16:12:07.825Z,99473.22
2023-05-09T16:15:10.523Z,99467.75
2023-05-09T16:18:13.343Z,99460.66
2023-05-09T16:21:15.834Z,99456.81
2023-05-09T16:24:18.177Z,99456.06
2023-05-09T16:27:20.491Z,99456.69
2023-05-09T16:30:23.337Z,99457.72
2023-05-09T16:33:25.945Z,99464.81
2023-05-09T16:36:29.968Z,99464.81
2023-05-09T16:39:32.785Z,99466.31
2023-05-09T16:42:35.310Z,99464.34
2023-05-09T16:45:38.007Z,99467.81
2023-05-09T16:48:40.318Z,99457.69
2023-05-09T16:51:43.557Z,99457.03
2023-05-09T16:54:45.908Z,99449.06
2023-05-09T16:57:48.229Z,99444.09
2023-05-09T17:00:50.987Z,99433.25
2023-05-09T17:03:54.275Z,99448.84
2023-05-09T17:06:56.561Z,99441.38
2023-05-09T17:09:58.975Z,99441.22
2023-05-09T17:13:01.697Z,99445.56
2023-05-09T17:16:04.350Z,99442.81
2023-05-09T17:19:06.811Z,99430.00
2023-05-09T17:22:10.138Z,99443.81
2023-05-09T17:25:12.605Z,99443.25
2023-05-09T17:28:14.875Z,99440.44
2023-05-09T17:31:17.657Z,99443.13
2023-05-09T17:34:19.949Z,99452.06
2023-05-09T17:37:22.278Z,99445.78
2023-05-09T17:40:25.141Z,99441.09
2023-05-09T17:43:28.524Z,99438.47
2023-05-09T17:46:31.586Z,99443.25
2023-05-09T17:49:34.324Z,99445.97
2023-05-09T17:52:37.371Z,99437.22
2023-05-09T17:55:40.326Z,99436.81
2023-05-09T17:58:42.651Z,99442.78
2023-05-09T18:01:45.482Z,99443.44
2023-05-09T18:04:48.309Z,99437.91
2023-05-09T18:07:50.633Z,99437.63
2023-05-09T18:10:56.956Z,99450.06
2023-05-09T18:13:59.426Z,99446.09
2023-05-09T18:17:02.452Z,99448.69
2023-05-09T18:20:07.402Z,99453.50
2023-05-09T18:23:11.074Z,99454.66
2023-05-09T18:26:13.785Z,99453.06
2023-05-09T18:29:17.381Z,99456.28
2023-05-09T18:32:21.427Z,99463.03
2023-05-09T18:35:24.132Z,99470.16
2023-05-09T18:38:26.761Z,99459.03
2023-05-09T18:41:33.376Z,99470.28
2023-05-09T18:44:36.846Z,99465.94
2023-05-09T18:47:39.413Z,99470.69
2023-05-09T18:50:42.278Z,99458.84
2023-05-09T18:53:45.193Z,99467.88
2023-05-09T18:56:47.662Z,99460.97
2023-05-09T18:59:52.013Z,99472.28
2023-05-09T19:02:54.774Z,99474.56
2023-05-09T19:06:00.059Z,99473.00
2023-05-09T19:09:04.416Z,99470.31
2023-05-09T19:12:06.849Z,99482.78
2023-05-09T19:15:10.181Z,99473.59
2023-05-09T19:18:12.979Z,99481.22
2023-05-09T19:21:16.365Z,99475.81
2023-05-09T19:24:18.875Z,99474.72
2023-05-09T19:27:21.436Z,99470.16
2023-05-09T19:30:23.770Z,99474.72
2023-05-09T19:33:26.120Z,99467.50
2023-05-09T19:36:28.855Z,99471.03
2023-05-09T19:39:31.328Z,99464.44
2023-05-09T19:42:35.189Z,99458.53
2023-05-09T19:45:37.672Z,99474.03
2023-05-09T19:48:40.371Z,99468.78
2023-05-09T19:51:43.664Z,99455.44
2023-05-09T19:54:46.063Z,99469.38
2023-05-09T19:57:48.829Z,99468.00
2023-05-09T20:00:51.218Z,99469.97
2023-05-09T20:03:53.874Z,99470.66
2023-05-09T20:06:56.207Z,99462.00
2023-05-09T20:09:58.764Z,99461.00
2023-05-09T20:13:01.342Z,99463.75
2023-05-09T20:16:04.321Z,99466.50
2023-05-09T20:19:07.766Z,99458.00
2023-05-09T20:22:10.233Z,99461.72
2023-05-09T20:25:13.811Z,99455.22
2023-05-09T20:28:20.543Z,99454.25
2023-05-09T20:31:22.994Z,99460.84
2023-05-09T20:34:27.610Z,99462.09
2023-05-09T20:37:30.278Z,99451.22
2023-05-09T20:40:35.392Z,99457.91
2023-05-09T20:43:38.443Z,99451.88
2023-05-09T20:46:42.163Z,99456.03
2023-05-09T20:49:45.349Z,99453.38
2023-05-09T20:52:49.222Z,99455.03
2023-05-09T20:55:51.603Z,99447.34
2023-05-09T20:59:03.274Z,99446.84
2023-05-09T21:02:05.605Z,99447.94
2023-05-09T21:05:08.571Z,99443.38
2023-05-09T21:08:11.267Z,99442.31
2023-05-09T21:11:13.956Z,99442.13
2023-05-09T21:14:17.504Z,99442.00
2023-05-09T21:17:20.245Z,99437.25
2023-05-09T21:20:23.064Z,99434.22
2023-05-09T21:23:26.321Z,99434.03
2023-05-09T21:26:29.064Z,99438.19
2023-05-09T21:29:31.359Z,99437.53
2023-05-09T21:32:33.649Z,99436.75
2023-05-09T21:35:36.130Z,99433.88
2023-05-09T21:38:38.435Z,99435.78
2023-05-09T21:41:42.832Z,99437.56
2023-05-09T21:44:45.344Z,99442.56
2023-05-09T21:47:47.741Z,99435.00
2023-05-09T21:50:50.045Z,99441.03
2023-05-09T21:53:52.359Z,99433.69
2023-05-09T21:56:54.727Z,99439.00
2023-05-09T22:00:01.234Z,99433.13
2023-05-09T22:03:03.925Z,99443.94
2023-05-09T22:06:06.360Z,99437.91
2023-05-09T22:09:09.920Z,99444.06
2023-05-09T22:12:12.428Z,99433.34
2023-05-09T22:15:14.782Z,99430.22
2023-05-09T22:18:17.095Z,99445.03
2023-05-09T22:21:19.637Z,99437.03
2023-05-09T22:24:21.973Z,99438.25
2023-05-09T22:27:24.344Z,99422.34
2023-05-09T22:30:26.683Z,99427.91
2023-05-09T22:33:29.229Z,99428.34
2023-05-09T22:36:32.155Z,99432.56
2023-05-09T22:39:34.485Z,99426.00
2023-05-09T22:42:36.933Z,99418.47
2023-05-09T22:45:39.222Z,99419.44
2023-05-09T22:48:41.502Z,99416.25
2023-05-09T22:51:43.776Z,99413.22
2023-05-09T22:54:46.294Z,99407.44
2023-05-09T22:57:48.593Z,99413.09
2023-05-09T23:00:50.908Z,99412.66
2023-05-09T23:03:53.174Z,99410.66
2023-05-09T23:06:55.584Z,99405.41
2023-05-09T23:09:57.957Z,99414.88
2023-05-09T23:13:00.237Z,99409.75
2023-05-09T23:16:02.733Z,99409.22
2023-05-09T23:19:05.181Z,99406.09
2023-05-09T23:22:07.572Z,99410.88
2023-05-09T23:25:10.259Z,99407.44
2023-05-09T23:28:12.610Z,99406.34
2023-05-09T23:31:14.916Z,99404.09
2023-05-09T23:34:17.528Z,99413.53
2023-05-09T23:37:19.850Z,99412.00
2023-05-09T23:40:22.293Z,99411.56
2023-05-09T23:43:25.140Z,99411.66
2023-05-09T23:46:27.433Z,99401.22
2023-05-09T23:49:29.713Z,99392.75
2023-05-09T23:52:31.951Z,99391.09
2023-05-09T23:55:34.276Z,99388.97
2023-05-09T23:58:36.525Z,99394.28
